createdAt,value
2023-05-19T00:00:40.699Z,16.08
2023-05-19T00:03:21.708Z,15.02
2023-05-19T00:05:50.495Z,15.23
2023-05-19T00:08:19.606Z,15.88
2023-05-19T00:10:48.049Z,15.55
2023-05-19T00:13:16.707Z,16.92
2023-05-19T00:15:46.801Z,18.58
2023-05-19T00:18:16.477Z,18.20
2023-05-19T00:20:44.633Z,18.67
2023-05-19T00:23:12.828Z,18.88
2023-05-19T00:25:40.894Z,17.65
2023-05-19T00:28:09.059Z,16.73
2023-05-19T00:30:37.312Z,17.95
2023-05-19T00:33:06.888Z,17.25
2023-05-19T00:35:35.007Z,18.83
2023-05-19T00:38:03.183Z,17.17
2023-05-19T00:40:31.919Z,17.45
2023-05-19T00:43:00.447Z,17.70
2023-05-19T00:45:28.895Z,19.67
2023-05-19T00:47:57.335Z,20.92
2023-05-19T00:50:27.356Z,19.88
2023-05-19T00:52:55.694Z,21.38
2023-05-19T00:55:24.773Z,21.15
2023-05-19T00:57:54.280Z,21.25
2023-05-19T01:03:25.540Z,23.23
2023-05-19T01:05:55.109Z,23.20
2023-05-19T01:08:23.289Z,20.40
2023-05-19T01:10:51.582Z,21.20
2023-05-19T01:13:19.521Z,22.13
2023-05-19T01:16:06.632Z,20.33
2023-05-19T01:18:48.582Z,19.63
2023-05-19T01:21:44.272Z,20.77
2023-05-19T01:24:25.400Z,20.63
2023-05-19T01:27:18.841Z,21.15
2023-05-19T01:30:01.452Z,22.05
2023-05-19T01:32:31.952Z,22.13
2023-05-19T01:35:00.170Z,20.45
2023-05-19T01:37:28.780Z,20.83
2023-05-19T01:39:56.855Z,21.73
2023-05-19T01:42:25.156Z,21.15
2023-05-19T01:44:53.882Z,22.48
2023-05-19T01:47:22.254Z,18.40
2023-05-19T01:49:51.634Z,19.65
2023-05-19T01:52:19.807Z,20.88
2023-05-19T01:54:47.737Z,19.42
2023-05-19T01:57:22.583Z,16.67
2023-05-19T01:59:54.954Z,16.17
2023-05-19T02:02:30.481Z,16.38
2023-05-19T02:05:03.798Z,15.68
2023-05-19T02:07:38.530Z,16.35
2023-05-19T02:10:07.907Z,16.00
2023-05-19T02:12:37.830Z,16.95
2023-05-19T02:15:08.253Z,15.73
2023-05-19T02:17:41.357Z,16.80
2023-05-19T02:20:11.783Z,18.30
2023-05-19T02:22:40.446Z,18.63
2023-05-19T02:25:09.124Z,20.25
2023-05-19T02:27:39.178Z,19.30
2023-05-19T02:30:09.314Z,21.05
2023-05-19T02:32:37.711Z,19.88
2023-05-19T02:35:06.709Z,17.67
2023-05-19T02:37:36.560Z,18.17
2023-05-19T02:40:05.508Z,17.42
2023-05-19T02:42:33.690Z,17.13
2023-05-19T02:45:01.661Z,16.63
2023-05-19T02:47:29.860Z,16.20
2023-05-19T02:49:57.812Z,18.05
2023-05-19T02:52:26.064Z,16.70
2023-05-19T02:54:55.500Z,16.35
2023-05-19T02:57:24.118Z,15.95
2023-05-19T02:59:52.101Z,16.13
2023-05-19T03:02:20.461Z,14.90
2023-05-19T03:04:48.414Z,14.25
2023-05-19T03:07:16.589Z,15.88
2023-05-19T03:09:44.495Z,17.13
2023-05-19T03:12:14.133Z,15.98
2023-05-19T03:14:42.301Z,16.30
2023-05-19T03:17:10.639Z,17.10
2023-05-19T03:19:38.620Z,18.15
2023-05-19T03:22:06.949Z,18.73
2023-05-19T03:24:35.096Z,19.40
2023-05-19T03:27:05.253Z,18.33
2023-05-19T03:29:34.537Z,18.70
2023-05-19T03:32:02.915Z,20.92
2023-05-19T03:34:32.604Z,22.02
2023-05-19T03:37:00.806Z,19.30
2023-05-19T03:39:28.715Z,21.55
2023-05-19T03:41:57.204Z,20.83
2023-05-19T03:44:25.307Z,22.50
2023-05-19T03:46:54.812Z,21.92
2023-05-19T03:49:22.741Z,22.65
2023-05-19T03:51:51.043Z,21.55
2023-05-19T03:54:19.012Z,23.60
2023-05-19T03:56:47.191Z,21.10
2023-05-19T03:59:16.113Z,21.63
2023-05-19T04:01:44.312Z,19.92
2023-05-19T04:04:13.667Z,22.50
2023-05-19T04:06:41.971Z,22.73
2023-05-19T04:09:13.770Z,21.40
2023-05-19T04:11:42.025Z,21.02
2023-05-19T04:14:10.444Z,22.45
2023-05-19T04:16:38.877Z,21.35
2023-05-19T04:19:06.869Z,20.88
2023-05-19T04:21:36.578Z,20.85
2023-05-19T04:24:06.230Z,18.83
2023-05-19T04:26:34.632Z,20.90
2023-05-19T04:29:04.354Z,19.20
2023-05-19T04:31:34.314Z,20.35
2023-05-19T04:34:02.792Z,18.92
2023-05-19T04:36:31.208Z,19.90
2023-05-19T04:39:07.005Z,19.70
2023-05-19T04:41:35.616Z,18.13
2023-05-19T04:44:03.878Z,19.02
2023-05-19T04:46:32.230Z,20.65
2023-05-19T04:49:01.247Z,20.35
2023-05-19T04:51:31.254Z,21.92
2023-05-19T04:54:01.470Z,18.35
2023-05-19T04:56:30.041Z,19.58
2023-05-19T04:58:58.009Z,18.45
2023-05-19T05:01:26.575Z,18.15
2023-05-19T05:03:56.017Z,18.38
2023-05-19T05:06:24.259Z,19.98
2023-05-19T05:08:52.555Z,19.52
2023-05-19T05:11:22.642Z,20.48
2023-05-19T05:13:50.990Z,16.65
2023-05-19T05:16:19.680Z,16.42
2023-05-19T05:18:48.223Z,16.23
2023-05-19T05:21:16.912Z,14.70
2023-05-19T05:23:45.404Z,15.00
2023-05-19T05:26:19.281Z,15.02
2023-05-19T05:28:48.538Z,15.18
2023-05-19T05:31:17.018Z,14.18
2023-05-19T05:33:45.032Z,14.00
2023-05-19T05:36:13.682Z,14.13
2023-05-19T05:38:44.161Z,13.85
2023-05-19T05:41:12.350Z,14.23
2023-05-19T05:43:40.388Z,13.98
2023-05-19T05:46:10.005Z,15.25
2023-05-19T05:48:38.646Z,13.65
2023-05-19T05:51:07.836Z,13.60
2023-05-19T05:53:40.483Z,13.57
2023-05-19T05:56:10.090Z,12.55
2023-05-19T05:58:40.597Z,13.55
2023-05-19T06:01:11.371Z,12.48
2023-05-19T06:03:41.595Z,13.20
2023-05-19T06:06:09.886Z,12.25
2023-05-19T06:08:37.923Z,11.57
2023-05-19T06:11:08.771Z,12.50
2023-05-19T06:13:37.035Z,12.45
2023-05-19T06:16:06.152Z,12.18
2023-05-19T06:18:35.595Z,11.45
2023-05-19T06:21:04.243Z,11.02
2023-05-19T06:23:32.247Z,11.25
2023-05-19T06:26:00.531Z,11.80
2023-05-19T06:28:28.501Z,12.18
2023-05-19T06:30:56.720Z,12.63
2023-05-19T06:33:26.153Z,12.65
2023-05-19T06:35:57.719Z,12.30
2023-05-19T06:38:25.738Z,11.98
2023-05-19T06:40:53.923Z,11.55
2023-05-19T06:43:21.931Z,12.63
2023-05-19T06:45:50.135Z,12.02
2023-05-19T06:48:18.156Z,12.98
2023-05-19T06:50:46.372Z,12.57
2023-05-19T06:53:15.769Z,13.32
2023-05-19T06:55:57.555Z,11.63
2023-05-19T06:58:27.789Z,12.27
2023-05-19T07:00:56.036Z,12.95
2023-05-19T07:03:24.051Z,12.75
2023-05-19T07:05:52.690Z,13.73
2023-05-19T07:08:21.945Z,11.48
2023-05-19T07:10:50.169Z,11.40
2023-05-19T07:13:18.080Z,10.98
2023-05-19T07:15:46.310Z,9.05
2023-05-19T07:18:14.250Z,10.35
2023-05-19T07:20:42.631Z,9.45
2023-05-19T07:23:10.618Z,9.98
2023-05-19T07:25:40.134Z,10.10
2023-05-19T07:28:08.052Z,9.63
2023-05-19T07:30:36.235Z,9.43
2023-05-19T07:33:04.277Z,9.85
2023-05-19T07:35:32.522Z,9.73
2023-05-19T07:38:00.692Z,9.48
2023-05-19T07:40:29.210Z,9.27
2023-05-19T07:42:58.640Z,9.15
2023-05-19T07:45:26.874Z,10.20
2023-05-19T07:47:55.514Z,10.35
2023-05-19T07:50:23.798Z,8.40
2023-05-19T07:52:51.817Z,9.07
2023-05-19T07:55:22.682Z,11.18
2023-05-19T07:57:50.808Z,7.35
2023-05-19T08:00:20.962Z,7.93
2023-05-19T08:02:48.961Z,8.32
2023-05-19T08:05:17.270Z,7.72
2023-05-19T08:07:45.262Z,8.35
2023-05-19T08:10:13.492Z,7.47
2023-05-19T08:12:41.584Z,7.38
2023-05-19T08:15:11.648Z,6.68
2023-05-19T08:17:40.957Z,6.35
2023-05-19T08:20:10.518Z,7.32
2023-05-19T08:22:38.439Z,6.93
2023-05-19T08:25:07.468Z,7.70
2023-05-19T08:27:35.563Z,7.32
2023-05-19T08:30:03.813Z,7.38
2023-05-19T08:32:31.969Z,7.35
2023-05-19T08:35:01.633Z,7.50
2023-05-19T08:37:30.044Z,8.65
2023-05-19T08:39:59.224Z,8.57
2023-05-19T08:42:27.164Z,8.40
2023-05-19T08:44:55.424Z,8.18
2023-05-19T08:47:23.636Z,8.15
2023-05-19T08:49:54.253Z,8.65
2023-05-19T08:52:32.397Z,8.35
2023-05-19T08:55:04.513Z,9.48
2023-05-19T08:57:34.154Z,9.32
2023-05-19T09:00:02.453Z,9.20
2023-05-19T09:02:30.893Z,9.75
2023-05-19T09:04:59.365Z,9.38
2023-05-19T09:07:30.479Z,9.40
2023-05-19T09:09:59.519Z,9.23
2023-05-19T09:12:28.130Z,10.65
2023-05-19T09:14:57.841Z,10.60
2023-05-19T09:17:25.832Z,11.10
2023-05-19T09:19:54.120Z,10.90
2023-05-19T09:22:22.250Z,11.18
2023-05-19T09:24:52.774Z,11.32
2023-05-19T09:27:23.369Z,11.85
2023-05-19T09:29:51.771Z,10.98
2023-05-19T09:32:26.942Z,11.30
2023-05-19T09:34:55.785Z,10.90
2023-05-19T09:37:25.169Z,10.75
2023-05-19T09:39:55.004Z,10.43
2023-05-19T09:42:27.161Z,9.43
2023-05-19T09:45:01.615Z,10.90
2023-05-19T09:47:30.569Z,10.45
2023-05-19T09:49:58.757Z,10.75
2023-05-19T09:52:27.337Z,10.27
2023-05-19T09:54:57.842Z,11.38
2023-05-19T09:57:29.237Z,11.10
2023-05-19T09:59:59.284Z,11.00
2023-05-19T10:02:27.312Z,11.15
2023-05-19T10:04:56.374Z,11.27
2023-05-19T10:07:25.792Z,13.85
2023-05-19T10:09:56.764Z,11.82
2023-05-19T10:12:27.375Z,13.48
2023-05-19T10:14:56.351Z,12.93
2023-05-19T10:17:26.433Z,12.52
2023-05-19T10:19:55.796Z,13.10
2023-05-19T10:22:23.733Z,12.95
2023-05-19T10:24:51.920Z,12.52
2023-05-19T10:27:21.627Z,14.25
2023-05-19T10:29:51.327Z,13.23
2023-05-19T10:32:22.275Z,13.15
2023-05-19T10:35:13.750Z,14.65
2023-05-19T10:37:46.615Z,12.90
2023-05-19T10:40:21.943Z,15.05
2023-05-19T10:43:01.273Z,14.50
2023-05-19T10:45:32.188Z,14.35
2023-05-19T10:48:00.554Z,14.68
2023-05-19T10:50:28.826Z,14.15
2023-05-19T10:52:57.941Z,13.32
2023-05-19T10:55:48.790Z,13.23
2023-05-19T10:58:37.870Z,13.00
2023-05-19T11:01:09.082Z,12.55
2023-05-19T11:03:52.180Z,13.18
2023-05-19T11:06:27.795Z,14.10
2023-05-19T11:08:57.982Z,14.23
2023-05-19T11:11:26.534Z,13.70
2023-05-19T11:13:56.623Z,14.90
2023-05-19T11:16:29.123Z,13.60
2023-05-19T11:21:25.669Z,12.48
2023-05-19T11:23:53.907Z,12.45
2023-05-19T11:26:41.181Z,12.68
2023-05-19T11:29:10.649Z,12.48
2023-05-19T11:31:39.293Z,11.40
2023-05-19T11:34:07.828Z,13.93
2023-05-19T11:36:40.011Z,12.45
2023-05-19T11:39:08.488Z,11.98
2023-05-19T11:41:40.398Z,11.35
2023-05-19T11:44:12.767Z,12.48
2023-05-19T11:46:41.459Z,11.88
2023-05-19T11:49:10.611Z,12.90
2023-05-19T11:51:39.280Z,13.10
2023-05-19T11:54:07.378Z,12.90
2023-05-19T11:56:36.732Z,11.88
2023-05-19T11:59:04.802Z,12.55
2023-05-19T12:01:34.830Z,12.48
2023-05-19T12:04:03.139Z,12.45
2023-05-19T12:06:31.759Z,12.75
2023-05-19T12:09:00.878Z,13.10
2023-05-19T12:11:29.823Z,13.07
2023-05-19T12:14:00.225Z,12.70
2023-05-19T12:16:35.591Z,12.23
2023-05-19T12:19:06.185Z,11.63
2023-05-19T12:21:34.909Z,11.88
2023-05-19T12:24:03.390Z,11.38
2023-05-19T12:26:31.589Z,13.85
2023-05-19T12:29:00.046Z,13.75
2023-05-19T12:31:28.330Z,13.73
2023-05-19T12:33:58.257Z,12.80
2023-05-19T12:36:27.099Z,13.40
2023-05-19T12:38:55.429Z,13.65
2023-05-19T12:41:27.195Z,12.63
2023-05-19T12:43:55.901Z,13.75
2023-05-19T12:46:24.191Z,13.52
2023-05-19T12:48:52.292Z,12.90
2023-05-19T12:51:22.413Z,12.65
2023-05-19T12:53:51.507Z,14.10
2023-05-19T12:56:19.764Z,14.18
2023-05-19T12:58:47.729Z,13.27
2023-05-19T13:01:20.030Z,14.60
2023-05-19T13:03:48.534Z,12.82
2023-05-19T13:06:16.939Z,13.02
2023-05-19T13:08:48.222Z,13.18
2023-05-19T13:11:16.511Z,13.68
2023-05-19T13:13:44.513Z,12.63
2023-05-19T13:16:13.433Z,12.95
2023-05-19T13:18:41.507Z,13.50
2023-05-19T13:21:10.146Z,12.50
2023-05-19T13:23:38.330Z,14.48
2023-05-19T13:26:07.914Z,13.88
2023-05-19T13:28:35.880Z,12.93
2023-05-19T13:31:04.189Z,13.07
2023-05-19T13:33:32.162Z,13.43
2023-05-19T13:36:00.326Z,12.30
2023-05-19T13:38:30.343Z,13.38
2023-05-19T13:40:58.510Z,13.30
2023-05-19T13:43:27.759Z,14.73
2023-05-19T13:45:56.244Z,15.60
2023-05-19T13:48:24.511Z,13.23
2023-05-19T13:50:55.466Z,14.52
2023-05-19T13:53:23.757Z,14.82
2023-05-19T13:55:52.953Z,15.15
2023-05-19T13:58:20.823Z,16.58
2023-05-19T14:00:54.446Z,15.85
2023-05-19T14:03:22.438Z,14.70
2023-05-19T14:05:50.783Z,15.18
2023-05-19T14:08:19.518Z,15.02
2023-05-19T14:10:48.104Z,15.07
2023-05-19T14:13:30.995Z,14.07
2023-05-19T14:16:01.900Z,14.15
2023-05-19T14:18:29.911Z,14.32
2023-05-19T14:20:58.062Z,14.63
2023-05-19T14:23:25.980Z,13.30
2023-05-19T14:25:54.421Z,15.13
2023-05-19T14:28:22.349Z,13.93
2023-05-19T14:30:51.033Z,14.13
2023-05-19T14:33:21.255Z,14.07
2023-05-19T14:35:49.526Z,15.32
2023-05-19T14:38:17.437Z,17.02
2023-05-19T14:40:45.797Z,15.90
2023-05-19T14:43:13.702Z,15.23
2023-05-19T14:45:42.073Z,16.80
2023-05-19T14:48:11.728Z,16.88
2023-05-19T14:50:41.363Z,14.45
2023-05-19T14:53:09.448Z,15.05
2023-05-19T14:55:37.814Z,15.23
2023-05-19T14:58:15.804Z,15.88
2023-05-19T15:00:48.959Z,17.60
2023-05-19T15:03:17.161Z,16.67
2023-05-19T15:05:46.731Z,16.85
2023-05-19T15:08:14.870Z,17.15
2023-05-19T15:10:43.044Z,18.08
2023-05-19T15:13:11.873Z,18.63
2023-05-19T15:15:40.364Z,17.95
2023-05-19T15:18:08.322Z,19.15
2023-05-19T15:20:36.850Z,19.90
2023-05-19T15:23:06.485Z,21.13
2023-05-19T15:25:34.694Z,18.35
2023-05-19T15:28:02.863Z,18.20
2023-05-19T15:30:31.408Z,21.42
2023-05-19T15:32:59.433Z,21.15
2023-05-19T15:35:27.733Z,18.52
2023-05-19T15:37:56.399Z,17.92
2023-05-19T15:40:26.375Z,17.23
2023-05-19T15:42:54.260Z,18.02
2023-05-19T15:45:22.936Z,16.65
2023-05-19T15:47:50.880Z,16.77
2023-05-19T15:50:19.244Z,17.92
2023-05-19T15:52:47.263Z,22.10
2023-05-19T15:55:15.611Z,21.02
2023-05-19T15:57:44.843Z,18.52
2023-05-19T16:00:14.214Z,19.40
2023-05-19T16:02:42.751Z,18.58
2023-05-19T16:05:11.176Z,18.88
2023-05-19T16:07:39.221Z,18.20
2023-05-19T16:10:08.297Z,23.92
2023-05-19T16:12:36.551Z,24.77
2023-05-19T16:15:07.384Z,20.42
2023-05-19T16:17:35.654Z,17.52
2023-05-19T16:20:04.405Z,16.27
2023-05-19T16:22:32.597Z,16.10
2023-05-19T16:25:00.765Z,16.83
2023-05-19T16:27:28.669Z,17.17
2023-05-19T16:29:56.958Z,16.27
2023-05-19T16:32:26.243Z,17.52
2023-05-19T16:34:54.468Z,17.83
2023-05-19T16:37:22.406Z,18.23
2023-05-19T16:39:50.632Z,16.80
2023-05-19T16:42:18.532Z,17.17
2023-05-19T16:44:46.965Z,18.45
2023-05-19T16:47:17.995Z,18.58
2023-05-19T16:49:47.514Z,24.33
2023-05-19T16:52:15.421Z,22.85
2023-05-19T16:54:43.754Z,24.27
2023-05-19T16:57:14.263Z,23.48
2023-05-19T16:59:42.639Z,21.70
2023-05-19T17:02:10.640Z,24.52
2023-05-19T17:04:39.188Z,20.02
2023-05-19T17:07:08.513Z,20.42
2023-05-19T17:09:36.681Z,19.65
2023-05-19T17:12:05.365Z,18.25
2023-05-19T17:14:33.537Z,18.23
2023-05-19T17:17:01.764Z,20.50
2023-05-19T17:19:30.230Z,20.08
2023-05-19T17:21:58.377Z,20.90
2023-05-19T17:24:28.808Z,19.75
2023-05-19T17:26:56.825Z,18.60
2023-05-19T17:29:26.814Z,19.73
2023-05-19T17:31:55.407Z,19.35
2023-05-19T17:34:23.772Z,19.50
2023-05-19T17:36:51.742Z,21.05
2023-05-19T17:39:20.778Z,20.20
2023-05-19T17:41:50.169Z,20.70
2023-05-19T17:44:18.372Z,21.08
2023-05-19T17:46:46.340Z,21.52
2023-05-19T17:49:15.301Z,22.17
2023-05-19T17:51:43.890Z,23.98
2023-05-19T17:54:12.399Z,24.75
2023-05-19T17:56:43.405Z,23.05
2023-05-19T17:59:13.396Z,23.13
2023-05-19T18:01:41.795Z,25.63
2023-05-19T18:04:12.130Z,25.58
2023-05-19T18:06:42.166Z,24.90
2023-05-19T18:09:11.090Z,23.75
2023-05-19T18:11:39.149Z,24.33
2023-05-19T18:14:07.465Z,25.88
2023-05-19T18:16:36.872Z,24.45
2023-05-19T18:19:05.165Z,23.73
2023-05-19T18:21:33.638Z,24.73
2023-05-19T18:24:03.014Z,23.15
2023-05-19T18:26:31.134Z,22.60
2023-05-19T18:29:02.632Z,23.05
2023-05-19T18:31:30.611Z,22.50
2023-05-19T18:34:00.258Z,23.50
2023-05-19T18:36:28.199Z,22.63
2023-05-19T18:38:58.124Z,22.60
2023-05-19T18:41:26.236Z,22.75
2023-05-19T18:43:54.669Z,21.90
2023-05-19T18:46:22.618Z,22.65
2023-05-19T18:48:51.043Z,22.85
2023-05-19T18:51:21.690Z,22.90
2023-05-19T18:53:50.645Z,23.67
2023-05-19T18:56:24.797Z,23.27
2023-05-19T18:58:53.259Z,24.65
2023-05-19T19:01:21.354Z,26.25
2023-05-19T19:03:49.715Z,26.08
2023-05-19T19:06:18.028Z,28.27
2023-05-19T19:08:47.994Z,26.67
2023-05-19T19:11:15.935Z,27.50
2023-05-19T19:13:44.547Z,27.20
2023-05-19T19:16:12.817Z,27.65
2023-05-19T19:18:41.328Z,27.38
2023-05-19T19:21:09.334Z,28.17
2023-05-19T19:23:37.645Z,27.75
2023-05-19T19:26:08.563Z,27.42
2023-05-19T19:28:36.965Z,27.47
2023-05-19T19:31:04.983Z,26.85
2023-05-19T19:33:33.205Z,27.85
2023-05-19T19:36:01.337Z,28.70
2023-05-19T19:38:29.575Z,28.45
2023-05-19T19:40:57.474Z,29.33
2023-05-19T19:43:27.399Z,26.60
2023-05-19T19:46:00.737Z,26.98
2023-05-19T19:48:29.441Z,28.20
2023-05-19T19:50:57.888Z,27.25
2023-05-19T19:53:26.211Z,28.25
2023-05-19T19:55:58.683Z,29.42
2023-05-19T19:58:28.885Z,30.17
2023-05-19T20:00:58.211Z,30.02
2023-05-19T20:03:26.999Z,30.15
2023-05-19T20:05:56.390Z,28.45
2023-05-19T20:08:25.174Z,30.92
2023-05-19T20:10:53.403Z,32.63
2023-05-19T20:13:21.658Z,31.35
2023-05-19T20:15:51.095Z,31.60
2023-05-19T20:18:19.415Z,32.97
2023-05-19T20:20:47.490Z,33.15
2023-05-19T20:23:16.170Z,32.72
2023-05-19T20:25:58.954Z,32.97
2023-05-19T20:28:35.002Z,31.17
2023-05-19T20:31:04.392Z,31.95
2023-05-19T20:33:32.614Z,29.92
2023-05-19T20:36:00.548Z,30.23
2023-05-19T20:38:28.735Z,29.48
2023-05-19T20:40:56.611Z,27.77
2023-05-19T20:43:25.354Z,28.27
2023-05-19T20:45:53.373Z,29.02
2023-05-19T20:48:22.957Z,29.85
2023-05-19T20:50:51.177Z,29.63
2023-05-19T20:53:19.854Z,32.10
2023-05-19T20:55:47.749Z,36.55
2023-05-19T20:58:15.921Z,33.70
2023-05-19T21:00:43.961Z,34.00
2023-05-19T21:03:12.409Z,35.47
2023-05-19T21:05:41.804Z,36.60
2023-05-19T21:08:12.798Z,37.53
2023-05-19T21:10:40.920Z,38.65
2023-05-19T21:13:09.192Z,36.83
2023-05-19T21:15:37.297Z,38.72
2023-05-19T21:18:05.583Z,35.95
2023-05-19T21:20:33.970Z,36.95
2023-05-19T21:23:03.742Z,36.17
2023-05-19T21:25:31.944Z,36.45
2023-05-19T21:28:00.260Z,35.08
2023-05-19T21:30:28.718Z,35.55
2023-05-19T21:32:57.063Z,32.13
2023-05-19T21:35:25.110Z,35.30
2023-05-19T21:37:53.356Z,34.65
2023-05-19T21:40:22.775Z,33.35
2023-05-19T21:42:51.003Z,34.45
2023-05-19T21:45:19.273Z,35.25
2023-05-19T21:47:47.616Z,37.65
2023-05-19T21:50:17.449Z,36.67
2023-05-19T21:52:45.870Z,38.28
2023-05-19T21:55:13.865Z,40.08
2023-05-19T21:57:43.415Z,42.03
2023-05-19T22:00:13.296Z,40.67
2023-05-19T22:02:41.958Z,41.83
2023-05-19T22:05:10.936Z,38.08
2023-05-19T22:07:39.520Z,42.50
2023-05-19T22:10:08.173Z,45.22
2023-05-19T22:12:36.579Z,41.40
2023-05-19T22:15:06.643Z,42.63
2023-05-19T22:17:34.913Z,46.63
2023-05-19T22:20:02.939Z,44.35
2023-05-19T22:22:31.218Z,44.65
2023-05-19T22:24:59.301Z,44.05
2023-05-19T22:27:27.529Z,43.95
2023-05-19T22:29:55.567Z,43.47
2023-05-19T22:32:25.154Z,43.90
2023-05-19T22:34:53.163Z,45.38
2023-05-19T22:37:23.489Z,45.90
2023-05-19T22:39:51.525Z,45.03
2023-05-19T22:42:20.075Z,45.63
2023-05-19T22:44:47.990Z,47.38
2023-05-19T22:47:16.348Z,47.38
2023-05-19T22:49:45.779Z,46.75
2023-05-19T22:52:14.250Z,45.90
2023-05-19T22:54:42.276Z,49.22
2023-05-19T22:57:10.550Z,48.35
2023-05-19T22:59:39.934Z,50.55
2023-05-19T23:02:08.236Z,48.00
2023-05-19T23:04:36.414Z,49.42
2023-05-19T23:07:06.207Z,45.97
2023-05-19T23:09:34.115Z,36.65
2023-05-19T23:12:02.307Z,34.75
2023-05-19T23:14:31.493Z,33.58
2023-05-19T23:16:59.734Z,33.20
2023-05-19T23:19:29.036Z,34.22
2023-05-19T23:21:57.323Z,34.95
2023-05-19T23:24:26.590Z,34.33
2023-05-19T23:26:55.236Z,35.13
2023-05-19T23:29:23.334Z,34.13
2023-05-19T23:31:51.609Z,31.15
2023-05-19T23:34:19.637Z,29.20
2023-05-19T23:36:47.896Z,27.70
2023-05-19T23:39:15.804Z,29.45
2023-05-19T23:41:45.442Z,29.75
2023-05-19T23:44:13.441Z,27.23
2023-05-19T23:46:41.971Z,28.05
2023-05-19T23:49:09.976Z,29.10
2023-05-19T23:51:38.117Z,27.63
2023-05-19T23:54:06.011Z,28.27
2023-05-19T23:56:34.189Z,26.08
2023-05-19T23:59:03.589Z,26.25
